sensor_id;sensor_type;location;lat;lon;timestamp;P1;durP1;ratioP1;P2;durP2;ratioP2
1799;SDS011;919;48.274;12.292;2024-02-21T00:01:50;2.67;;;2.47;;
1799;SDS011;919;48.274;12.292;2024-02-21T00:04:17;2.87;;;2.60;;
1799;SDS011;919;48.274;12.292;2024-02-21T00:06:44;5.03;;;2.73;;
1799;SDS011;919;48.274;12.292;2024-02-21T00:09:11;3.67;;;2.30;;
1799;SDS011;919;48.274;12.292;2024-02-21T00:11:37;5.17;;;2.80;;
1799;SDS011;919;48.274;12.292;2024-02-21T00:14:06;3.37;;;2.30;;
1799;SDS011;919;48.274;12.292;2024-02-21T00:16:32;3.33;;;2.30;;
1799;SDS011;919;48.274;12.292;2024-02-21T00:18:59;3.70;;;2.07;;
1799;SDS011;919;48.274;12.292;2024-02-21T00:21:26;3.03;;;1.97;;
1799;SDS011;919;48.274;12.292;2024-02-21T00:23:52;3.13;;;2.27;;
1799;SDS011;919;48.274;12.292;2024-02-21T00:26:19;2.70;;;2.00;;
1799;SDS011;919;48.274;12.292;2024-02-21T00:28:46;3.03;;;1.90;;
1799;SDS011;919;48.274;12.292;2024-02-21T00:31:14;1.80;;;1.50;;
1799;SDS011;919;48.274;12.292;2024-02-21T00:33:40;1.90;;;1.80;;
1799;SDS011;919;48.274;12.292;2024-02-21T00:36:07;3.03;;;2.20;;
1799;SDS011;919;48.274;12.292;2024-02-21T00:38:34;2.20;;;1.80;;
1799;SDS011;919;48.274;12.292;2024-02-21T00:41:01;2.90;;;2.00;;
1799;SDS011;919;48.274;12.292;2024-02-21T00:43:27;2.60;;;1.80;;
1799;SDS011;919;48.274;12.292;2024-02-21T00:45:54;3.10;;;2.27;;
1799;SDS011;919;48.274;12.292;2024-02-21T00:48:22;3.00;;;2.03;;
1799;SDS011;919;48.274;12.292;2024-02-21T00:50:49;2.20;;;2.00;;
1799;SDS011;919;48.274;12.292;2024-02-21T00:53:16;6.40;;;2.40;;
1799;SDS011;919;48.274;12.292;2024-02-21T00:55:43;2.63;;;1.90;;
1799;SDS011;919;48.274;12.292;2024-02-21T00:58:10;2.90;;;1.40;;
1799;SDS011;919;48.274;12.292;2024-02-21T01:00:37;2.70;;;2.10;;
1799;SDS011;919;48.274;12.292;2024-02-21T01:03:03;4.30;;;2.43;;
1799;SDS011;919;48.274;12.292;2024-02-21T01:05:31;4.53;;;2.80;;
1799;SDS011;919;48.274;12.292;2024-02-21T01:07:58;3.70;;;2.30;;
1799;SDS011;919;48.274;12.292;2024-02-21T01:10:25;4.47;;;2.00;;
1799;SDS011;919;48.274;12.292;2024-02-21T01:12:51;3.30;;;1.97;;
1799;SDS011;919;48.274;12.292;2024-02-21T01:15:18;1.97;;;1.87;;
1799;SDS011;919;48.274;12.292;2024-02-21T01:17:45;3.10;;;1.87;;
1799;SDS011;919;48.274;12.292;2024-02-21T01:20:12;1.90;;;1.80;;
1799;SDS011;919;48.274;12.292;2024-02-21T01:22:40;1.83;;;1.73;;
1799;SDS011;919;48.274;12.292;2024-02-21T01:25:07;2.23;;;2.00;;
1799;SDS011;919;48.274;12.292;2024-02-21T01:27:34;4.00;;;2.40;;
1799;SDS011;919;48.274;12.292;2024-02-21T01:30:01;2.40;;;2.20;;
1799;SDS011;919;48.274;12.292;2024-02-21T01:32:27;4.03;;;1.90;;
1799;SDS011;919;48.274;12.292;2024-02-21T01:34:54;2.73;;;2.03;;
1799;SDS011;919;48.274;12.292;2024-02-21T01:37:21;4.07;;;2.00;;
1799;SDS011;919;48.274;12.292;2024-02-21T01:39:49;2.00;;;1.90;;
1799;SDS011;919;48.274;12.292;2024-02-21T01:42:15;2.63;;;2.30;;
1799;SDS011;919;48.274;12.292;2024-02-21T01:44:42;2.30;;;2.00;;
1799;SDS011;919;48.274;12.292;2024-02-21T01:47:11;4.67;;;2.83;;
1799;SDS011;919;48.274;12.292;2024-02-21T01:49:39;2.20;;;2.00;;
1799;SDS011;919;48.274;12.292;2024-02-21T01:52:06;1.87;;;1.77;;
1799;SDS011;919;48.274;12.292;2024-02-21T01:54:34;3.93;;;2.43;;
1799;SDS011;919;48.274;12.292;2024-02-21T01:57:02;1.83;;;1.73;;
1799;SDS011;919;48.274;12.292;2024-02-21T01:59:30;2.07;;;1.70;;
1799;SDS011;919;48.274;12.292;2024-02-21T02:01:57;2.50;;;2.00;;
1799;SDS011;919;48.274;12.292;2024-02-21T02:04:26;1.80;;;1.70;;
1799;SDS011;919;48.274;12.292;2024-02-21T02:06:52;2.43;;;1.47;;
1799;SDS011;919;48.274;12.292;2024-02-21T02:09:20;3.27;;;1.67;;
1799;SDS011;919;48.274;12.292;2024-02-21T02:11:47;3.80;;;2.23;;
1799;SDS011;919;48.274;12.292;2024-02-21T02:14:15;1.43;;;1.43;;
1799;SDS011;919;48.274;12.292;2024-02-21T02:16:42;6.60;;;1.83;;
1799;SDS011;919;48.274;12.292;2024-02-21T02:19:11;5.07;;;2.40;;
1799;SDS011;919;48.274;12.292;2024-02-21T02:21:39;5.77;;;2.33;;
1799;SDS011;919;48.274;12.292;2024-02-21T02:24:10;1.87;;;1.67;;
1799;SDS011;919;48.274;12.292;2024-02-21T02:26:39;4.17;;;2.10;;
1799;SDS011;919;48.274;12.292;2024-02-21T02:32:27;4.00;;;2.23;;
1799;SDS011;919;48.274;12.292;2024-02-21T02:34:54;4.40;;;2.17;;
1799;SDS011;919;48.274;12.292;2024-02-21T02:37:21;1.60;;;1.50;;
1799;SDS011;919;48.274;12.292;2024-02-21T02:39:49;2.67;;;2.10;;
1799;SDS011;919;48.274;12.292;2024-02-21T02:42:16;2.83;;;1.97;;
1799;SDS011;919;48.274;12.292;2024-02-21T02:44:43;8.53;;;2.10;;
1799;SDS011;919;48.274;12.292;2024-02-21T02:47:10;3.57;;;1.77;;
1799;SDS011;919;48.274;12.292;2024-02-21T02:49:36;4.23;;;2.03;;
1799;SDS011;919;48.274;12.292;2024-02-21T02:52:03;2.50;;;1.40;;
1799;SDS011;919;48.274;12.292;2024-02-21T02:54:30;2.33;;;1.40;;
1799;SDS011;919;48.274;12.292;2024-02-21T02:56:58;3.30;;;1.73;;
1799;SDS011;919;48.274;12.292;2024-02-21T02:59:25;1.30;;;1.30;;
1799;SDS011;919;48.274;12.292;2024-02-21T03:01:52;2.20;;;1.63;;
1799;SDS011;919;48.274;12.292;2024-02-21T03:04:18;1.40;;;1.30;;
1799;SDS011;919;48.274;12.292;2024-02-21T03:06:45;3.67;;;2.07;;
1799;SDS011;919;48.274;12.292;2024-02-21T03:09:12;2.50;;;2.30;;
1799;SDS011;919;48.274;12.292;2024-02-21T03:11:40;2.27;;;2.07;;
1799;SDS011;919;48.274;12.292;2024-02-21T03:14:10;1.33;;;1.10;;
1799;SDS011;919;48.274;12.292;2024-02-21T03:16:37;2.37;;;2.07;;
1799;SDS011;919;48.274;12.292;2024-02-21T03:19:04;2.00;;;1.57;;
1799;SDS011;919;48.274;12.292;2024-02-21T03:21:31;3.00;;;1.40;;
1799;SDS011;919;48.274;12.292;2024-02-21T03:23:57;1.20;;;1.10;;
1799;SDS011;919;48.274;12.292;2024-02-21T03:26:24;3.00;;;1.67;;
1799;SDS011;919;48.274;12.292;2024-02-21T03:28:51;1.37;;;1.23;;
1799;SDS011;919;48.274;12.292;2024-02-21T03:31:19;4.77;;;1.40;;
1799;SDS011;919;48.274;12.292;2024-02-21T03:33:45;1.70;;;1.20;;
1799;SDS011;919;48.274;12.292;2024-02-21T03:36:13;2.10;;;1.47;;
1799;SDS011;919;48.274;12.292;2024-02-21T03:38:40;2.30;;;1.57;;
1799;SDS011;919;48.274;12.292;2024-02-21T03:41:07;2.07;;;1.37;;
1799;SDS011;919;48.274;12.292;2024-02-21T03:43:33;1.73;;;1.30;;
1799;SDS011;919;48.274;12.292;2024-02-21T03:46:00;1.57;;;1.43;;
1799;SDS011;919;48.274;12.292;2024-02-21T03:48:28;1.13;;;1.03;;
1799;SDS011;919;48.274;12.292;2024-02-21T03:50:55;1.30;;;1.20;;
1799;SDS011;919;48.274;12.292;2024-02-21T03:53:22;1.67;;;1.00;;
1799;SDS011;919;48.274;12.292;2024-02-21T03:55:49;2.53;;;1.67;;
1799;SDS011;919;48.274;12.292;2024-02-21T03:58:15;3.70;;;1.20;;
1799;SDS011;919;48.274;12.292;2024-02-21T04:00:42;1.00;;;1.00;;
1799;SDS011;919;48.274;12.292;2024-02-21T04:03:09;4.27;;;1.17;;
1799;SDS011;919;48.274;12.292;2024-02-21T04:05:37;1.80;;;1.70;;
1799;SDS011;919;48.274;12.292;2024-02-21T04:08:04;1.20;;;1.20;;
1799;SDS011;919;48.274;12.292;2024-02-21T04:10:31;2.97;;;1.20;;
1799;SDS011;919;48.274;12.292;2024-02-21T04:12:58;2.10;;;1.20;;
1799;SDS011;919;48.274;12.292;2024-02-21T04:15:24;1.43;;;1.30;;
1799;SDS011;919;48.274;12.292;2024-02-21T04:17:51;1.23;;;1.13;;
1799;SDS011;919;48.274;12.292;2024-02-21T04:20:18;0.90;;;0.90;;
1799;SDS011;919;48.274;12.292;2024-02-21T04:22:46;4.17;;;1.20;;
1799;SDS011;919;48.274;12.292;2024-02-21T04:25:13;1.67;;;1.30;;
1799;SDS011;919;48.274;12.292;2024-02-21T04:27:39;2.37;;;1.50;;
1799;SDS011;919;48.274;12.292;2024-02-21T04:30:07;1.77;;;1.67;;
1799;SDS011;919;48.274;12.292;2024-02-21T04:32:34;1.70;;;1.60;;
1799;SDS011;919;48.274;12.292;2024-02-21T04:35:01;0.90;;;0.90;;
1799;SDS011;919;48.274;12.292;2024-02-21T04:37:28;1.10;;;1.00;;
1799;SDS011;919;48.274;12.292;2024-02-21T04:39:57;3.90;;;1.43;;
1799;SDS011;919;48.274;12.292;2024-02-21T04:42:23;1.40;;;1.30;;
1799;SDS011;919;48.274;12.292;2024-02-21T04:44:50;2.70;;;1.63;;
1799;SDS011;919;48.274;12.292;2024-02-21T04:47:17;1.10;;;0.97;;
1799;SDS011;919;48.274;12.292;2024-02-21T04:49:44;1.10;;;1.10;;
1799;SDS011;919;48.274;12.292;2024-02-21T04:52:11;1.33;;;1.27;;
1799;SDS011;919;48.274;12.292;2024-02-21T04:54:38;4.10;;;1.40;;
1799;SDS011;919;48.274;12.292;2024-02-21T04:57:06;2.70;;;2.23;;
1799;SDS011;919;48.274;12.292;2024-02-21T04:59:35;4.27;;;1.50;;
1799;SDS011;919;48.274;12.292;2024-02-21T05:02:02;1.63;;;1.37;;
1799;SDS011;919;48.274;12.292;2024-02-21T05:04:29;1.13;;;1.13;;
1799;SDS011;919;48.274;12.292;2024-02-21T05:06:55;1.40;;;1.30;;
1799;SDS011;919;48.274;12.292;2024-02-21T05:09:22;1.20;;;1.10;;
1799;SDS011;919;48.274;12.292;2024-02-21T05:11:49;3.07;;;1.70;;
1799;SDS011;919;48.274;12.292;2024-02-21T05:14:17;1.53;;;1.43;;
1799;SDS011;919;48.274;12.292;2024-02-21T05:16:44;1.53;;;1.43;;
1799;SDS011;919;48.274;12.292;2024-02-21T05:19:10;2.33;;;1.70;;
1799;SDS011;919;48.274;12.292;2024-02-21T05:21:37;3.20;;;1.90;;
1799;SDS011;919;48.274;12.292;2024-02-21T05:24:04;0.97;;;0.87;;
1799;SDS011;919;48.274;12.292;2024-02-21T05:26:31;1.30;;;1.20;;
1799;SDS011;919;48.274;12.292;2024-02-21T05:28:58;4.73;;;1.50;;
1799;SDS011;919;48.274;12.292;2024-02-21T05:31:26;2.90;;;1.97;;
1799;SDS011;919;48.274;12.292;2024-02-21T05:34:20;1.67;;;1.23;;
1799;SDS011;919;48.274;12.292;2024-02-21T05:36:47;1.23;;;1.10;;
1799;SDS011;919;48.274;12.292;2024-02-21T05:39:14;3.73;;;1.50;;
1799;SDS011;919;48.274;12.292;2024-02-21T05:41:41;1.37;;;1.10;;
1799;SDS011;919;48.274;12.292;2024-02-21T05:44:08;1.57;;;1.47;;
1799;SDS011;919;48.274;12.292;2024-02-21T05:46:36;4.70;;;1.10;;
1799;SDS011;919;48.274;12.292;2024-02-21T05:49:03;1.17;;;1.07;;
1799;SDS011;919;48.274;12.292;2024-02-21T05:51:32;1.43;;;1.33;;
1799;SDS011;919;48.274;12.292;2024-02-21T05:53:58;4.27;;;1.37;;
1799;SDS011;919;48.274;12.292;2024-02-21T05:56:25;3.97;;;1.20;;
1799;SDS011;919;48.274;12.292;2024-02-21T05:58:53;1.20;;;1.10;;
1799;SDS011;919;48.274;12.292;2024-02-21T06:01:20;2.93;;;1.50;;
1799;SDS011;919;48.274;12.292;2024-02-21T06:03:48;2.13;;;1.50;;
1799;SDS011;919;48.274;12.292;2024-02-21T06:06:15;6.43;;;1.90;;
1799;SDS011;919;48.274;12.292;2024-02-21T06:08:42;2.00;;;1.30;;
1799;SDS011;919;48.274;12.292;2024-02-21T06:11:08;1.40;;;1.30;;
1799;SDS011;919;48.274;12.292;2024-02-21T06:13:37;3.33;;;1.70;;
1799;SDS011;919;48.274;12.292;2024-02-21T06:16:05;2.43;;;1.40;;
1799;SDS011;919;48.274;12.292;2024-02-21T06:18:34;0.97;;;0.93;;
1799;SDS011;919;48.274;12.292;2024-02-21T06:21:03;3.00;;;1.10;;
1799;SDS011;919;48.274;12.292;2024-02-21T06:23:30;1.20;;;1.10;;
1799;SDS011;919;48.274;12.292;2024-02-21T06:25:57;1.73;;;1.30;;
1799;SDS011;919;48.274;12.292;2024-02-21T06:28:23;3.57;;;1.50;;
1799;SDS011;919;48.274;12.292;2024-02-21T06:30:50;2.30;;;1.20;;
1799;SDS011;919;48.274;12.292;2024-02-21T06:33:17;1.67;;;0.80;;
1799;SDS011;919;48.274;12.292;2024-02-21T06:35:47;1.50;;;1.40;;
1799;SDS011;919;48.274;12.292;2024-02-21T06:38:18;13.60;;;1.90;;
1799;SDS011;919;48.274;12.292;2024-02-21T06:40:45;1.00;;;1.00;;
1799;SDS011;919;48.274;12.292;2024-02-21T06:43:16;1.97;;;1.53;;
1799;SDS011;919;48.274;12.292;2024-02-21T06:45:43;1.37;;;1.27;;
1799;SDS011;919;48.274;12.292;2024-02-21T06:48:12;2.07;;;1.50;;
1799;SDS011;919;48.274;12.292;2024-02-21T06:50:39;2.73;;;1.50;;
1799;SDS011;919;48.274;12.292;2024-02-21T06:53:06;2.03;;;1.50;;
1799;SDS011;919;48.274;12.292;2024-02-21T06:55:34;5.00;;;1.63;;
1799;SDS011;919;48.274;12.292;2024-02-21T06:58:01;3.50;;;2.00;;
1799;SDS011;919;48.274;12.292;2024-02-21T07:00:28;5.87;;;1.93;;
1799;SDS011;919;48.274;12.292;2024-02-21T07:02:55;2.77;;;1.70;;
1799;SDS011;919;48.274;12.292;2024-02-21T07:05:23;4.07;;;1.77;;
1799;SDS011;919;48.274;12.292;2024-02-21T07:07:49;3.43;;;1.93;;
1799;SDS011;919;48.274;12.292;2024-02-21T07:10:16;1.73;;;1.50;;
1799;SDS011;919;48.274;12.292;2024-02-21T07:12:44;1.93;;;1.43;;
1799;SDS011;919;48.274;12.292;2024-02-21T07:15:11;1.20;;;1.20;;
1799;SDS011;919;48.274;12.292;2024-02-21T07:17:38;1.00;;;1.00;;
1799;SDS011;919;48.274;12.292;2024-02-21T07:20:05;1.70;;;1.10;;
1799;SDS011;919;48.274;12.292;2024-02-21T07:22:32;2.00;;;0.90;;
1799;SDS011;919;48.274;12.292;2024-02-21T07:24:59;0.80;;;0.80;;
1799;SDS011;919;48.274;12.292;2024-02-21T07:27:26;0.93;;;0.90;;
1799;SDS011;919;48.274;12.292;2024-02-21T07:29:57;1.80;;;1.10;;
1799;SDS011;919;48.274;12.292;2024-02-21T07:32:23;1.23;;;1.10;;
1799;SDS011;919;48.274;12.292;2024-02-21T07:34:50;2.80;;;1.23;;
1799;SDS011;919;48.274;12.292;2024-02-21T07:37:17;0.80;;;0.80;;
1799;SDS011;919;48.274;12.292;2024-02-21T07:39:44;1.03;;;1.00;;
1799;SDS011;919;48.274;12.292;2024-02-21T07:42:10;2.53;;;1.53;;
1799;SDS011;919;48.274;12.292;2024-02-21T07:44:37;1.27;;;0.93;;
1799;SDS011;919;48.274;12.292;2024-02-21T07:47:05;3.33;;;1.20;;
1799;SDS011;919;48.274;12.292;2024-02-21T07:49:33;0.73;;;0.73;;
1799;SDS011;919;48.274;12.292;2024-02-21T07:52:06;1.80;;;1.10;;
1799;SDS011;919;48.274;12.292;2024-02-21T07:54:33;2.70;;;1.23;;
1799;SDS011;919;48.274;12.292;2024-02-21T07:56:59;1.10;;;1.00;;
1799;SDS011;919;48.274;12.292;2024-02-21T07:59:27;1.83;;;1.20;;
1799;SDS011;919;48.274;12.292;2024-02-21T08:01:55;2.47;;;1.40;;
1799;SDS011;919;48.274;12.292;2024-02-21T08:04:24;2.00;;;1.43;;
1799;SDS011;919;48.274;12.292;2024-02-21T08:06:51;1.00;;;1.00;;
1799;SDS011;919;48.274;12.292;2024-02-21T08:09:20;1.57;;;1.47;;
1799;SDS011;919;48.274;12.292;2024-02-21T08:11:48;1.10;;;1.10;;
1799;SDS011;919;48.274;12.292;2024-02-21T08:14:15;1.10;;;1.00;;
1799;SDS011;919;48.274;12.292;2024-02-21T08:16:42;1.33;;;1.23;;
1799;SDS011;919;48.274;12.292;2024-02-21T08:19:08;1.50;;;1.40;;
1799;SDS011;919;48.274;12.292;2024-02-21T08:21:38;1.60;;;1.50;;
1799;SDS011;919;48.274;12.292;2024-02-21T08:24:04;2.50;;;1.50;;
1799;SDS011;919;48.274;12.292;2024-02-21T08:26:31;1.30;;;1.20;;
1799;SDS011;919;48.274;12.292;2024-02-21T08:28:58;1.30;;;1.00;;
1799;SDS011;919;48.274;12.292;2024-02-21T08:31:27;1.60;;;1.37;;
1799;SDS011;919;48.274;12.292;2024-02-21T08:33:56;1.40;;;1.30;;
1799;SDS011;919;48.274;12.292;2024-02-21T08:36:27;2.23;;;1.27;;
1799;SDS011;919;48.274;12.292;2024-02-21T08:38:56;1.60;;;1.50;;
1799;SDS011;919;48.274;12.292;2024-02-21T08:41:23;1.30;;;1.20;;
1799;SDS011;919;48.274;12.292;2024-02-21T08:43:50;1.30;;;1.20;;
1799;SDS011;919;48.274;12.292;2024-02-21T08:46:17;2.00;;;1.40;;
1799;SDS011;919;48.274;12.292;2024-02-21T08:48:44;1.87;;;1.30;;
1799;SDS011;919;48.274;12.292;2024-02-21T08:51:11;0.90;;;0.90;;
1799;SDS011;919;48.274;12.292;2024-02-21T08:53:38;2.60;;;1.10;;
1799;SDS011;919;48.274;12.292;2024-02-21T08:56:06;1.90;;;1.07;;
1799;SDS011;919;48.274;12.292;2024-02-21T08:58:34;1.40;;;1.30;;
1799;SDS011;919;48.274;12.292;2024-02-21T09:01:03;1.93;;;1.10;;
1799;SDS011;919;48.274;12.292;2024-02-21T09:03:30;0.87;;;0.87;;
1799;SDS011;919;48.274;12.292;2024-02-21T09:05:57;1.90;;;1.40;;
1799;SDS011;919;48.274;12.292;2024-02-21T09:08:24;1.30;;;1.23;;
1799;SDS011;919;48.274;12.292;2024-02-21T09:10:51;1.30;;;1.20;;
1799;SDS011;919;48.274;12.292;2024-02-21T09:13:19;1.63;;;1.53;;
1799;SDS011;919;48.274;12.292;2024-02-21T09:15:46;2.70;;;1.50;;
1799;SDS011;919;48.274;12.292;2024-02-21T09:18:13;1.80;;;1.70;;
1799;SDS011;919;48.274;12.292;2024-02-21T09:20:40;3.03;;;1.10;;
1799;SDS011;919;48.274;12.292;2024-02-21T09:23:07;1.50;;;1.40;;
1799;SDS011;919;48.274;12.292;2024-02-21T09:25:34;2.80;;;1.40;;
1799;SDS011;919;48.274;12.292;2024-02-21T09:28:01;1.30;;;1.20;;
1799;SDS011;919;48.274;12.292;2024-02-21T09:30:30;1.63;;;1.40;;
1799;SDS011;919;48.274;12.292;2024-02-21T09:32:57;1.57;;;1.47;;
1799;SDS011;919;48.274;12.292;2024-02-21T09:35:25;2.90;;;1.30;;
1799;SDS011;919;48.274;12.292;2024-02-21T09:37:52;2.07;;;1.50;;
1799;SDS011;919;48.274;12.292;2024-02-21T09:40:19;1.97;;;1.77;;
1799;SDS011;919;48.274;12.292;2024-02-21T09:42:47;1.20;;;1.20;;
1799;SDS011;919;48.274;12.292;2024-02-21T09:45:15;1.40;;;1.10;;
1799;SDS011;919;48.274;12.292;2024-02-21T09:47:50;3.13;;;1.10;;
1799;SDS011;919;48.274;12.292;2024-02-21T09:50:26;4.83;;;1.13;;
1799;SDS011;919;48.274;12.292;2024-02-21T09:52:55;2.93;;;1.20;;
1799;SDS011;919;48.274;12.292;2024-02-21T09:55:23;1.77;;;1.47;;
1799;SDS011;919;48.274;12.292;2024-02-21T09:57:52;2.33;;;1.30;;
1799;SDS011;919;48.274;12.292;2024-02-21T10:00:20;1.13;;;1.10;;
1799;SDS011;919;48.274;12.292;2024-02-21T10:02:47;1.37;;;1.27;;
1799;SDS011;919;48.274;12.292;2024-02-21T10:05:16;0.97;;;0.90;;
1799;SDS011;919;48.274;12.292;2024-02-21T10:07:43;1.70;;;1.30;;
1799;SDS011;919;48.274;12.292;2024-02-21T10:10:10;1.97;;;1.07;;
1799;SDS011;919;48.274;12.292;2024-02-21T10:12:47;1.73;;;1.00;;
1799;SDS011;919;48.274;12.292;2024-02-21T10:15:19;1.20;;;1.10;;
1799;SDS011;919;48.274;12.292;2024-02-21T10:17:47;1.00;;;1.00;;
1799;SDS011;919;48.274;12.292;2024-02-21T10:20:16;1.23;;;1.13;;
1799;SDS011;919;48.274;12.292;2024-02-21T10:22:42;2.00;;;1.20;;
1799;SDS011;919;48.274;12.292;2024-02-21T10:25:09;3.80;;;1.77;;
1799;SDS011;919;48.274;12.292;2024-02-21T10:27:37;1.97;;;1.23;;
1799;SDS011;919;48.274;12.292;2024-02-21T10:30:05;4.20;;;1.10;;
1799;SDS011;919;48.274;12.292;2024-02-21T10:32:32;2.50;;;1.40;;
1799;SDS011;919;48.274;12.292;2024-02-21T10:35:04;2.97;;;1.30;;
1799;SDS011;919;48.274;12.292;2024-02-21T10:37:31;1.23;;;1.13;;
1799;SDS011;919;48.274;12.292;2024-02-21T10:39:58;3.20;;;1.40;;
1799;SDS011;919;48.274;12.292;2024-02-21T10:42:26;2.40;;;1.17;;
1799;SDS011;919;48.274;12.292;2024-02-21T10:44:56;3.40;;;1.30;;
1799;SDS011;919;48.274;12.292;2024-02-21T10:47:29;1.40;;;1.20;;
1799;SDS011;919;48.274;12.292;2024-02-21T10:50:02;3.00;;;1.17;;
1799;SDS011;919;48.274;12.292;2024-02-21T10:52:37;2.13;;;1.37;;
1799;SDS011;919;48.274;12.292;2024-02-21T10:55:12;5.07;;;1.80;;
1799;SDS011;919;48.274;12.292;2024-02-21T10:57:48;2.03;;;1.30;;
1799;SDS011;919;48.274;12.292;2024-02-21T11:00:17;2.87;;;1.33;;
1799;SDS011;919;48.274;12.292;2024-02-21T11:02:44;1.63;;;1.20;;
1799;SDS011;919;48.274;12.292;2024-02-21T11:05:13;3.40;;;1.73;;
1799;SDS011;919;48.274;12.292;2024-02-21T11:07:41;3.47;;;1.60;;
1799;SDS011;919;48.274;12.292;2024-02-21T11:10:19;1.50;;;1.40;;
1799;SDS011;919;48.274;12.292;2024-02-21T11:12:48;1.67;;;1.40;;
1799;SDS011;919;48.274;12.292;2024-02-21T11:15:15;1.73;;;1.63;;
1799;SDS011;919;48.274;12.292;2024-02-21T11:17:42;1.40;;;1.30;;
1799;SDS011;919;48.274;12.292;2024-02-21T11:20:22;1.87;;;1.30;;
1799;SDS011;919;48.274;12.292;2024-02-21T11:22:59;1.57;;;1.47;;
1799;SDS011;919;48.274;12.292;2024-02-21T11:25:26;2.10;;;1.60;;
1799;SDS011;919;48.274;12.292;2024-02-21T11:27:58;1.83;;;1.70;;
1799;SDS011;919;48.274;12.292;2024-02-21T11:30:26;2.53;;;1.70;;
1799;SDS011;919;48.274;12.292;2024-02-21T11:32:58;1.63;;;1.53;;
1799;SDS011;919;48.274;12.292;2024-02-21T11:35:27;1.33;;;1.13;;
1799;SDS011;919;48.274;12.292;2024-02-21T11:38:07;1.30;;;1.20;;
1799;SDS011;919;48.274;12.292;2024-02-21T11:40:35;1.50;;;1.30;;
1799;SDS011;919;48.274;12.292;2024-02-21T11:43:04;1.70;;;1.23;;
1799;SDS011;919;48.274;12.292;2024-02-21T11:45:31;1.90;;;1.40;;
1799;SDS011;919;48.274;12.292;2024-02-21T11:47:58;1.10;;;1.03;;
1799;SDS011;919;48.274;12.292;2024-02-21T11:50:29;1.40;;;1.23;;
1799;SDS011;919;48.274;12.292;2024-02-21T11:52:56;1.03;;;0.90;;
1799;SDS011;919;48.274;12.292;2024-02-21T11:55:22;1.40;;;1.30;;
1799;SDS011;919;48.274;12.292;2024-02-21T11:57:49;1.00;;;0.90;;
1799;SDS011;919;48.274;12.292;2024-02-21T12:00:16;1.90;;;1.10;;
1799;SDS011;919;48.274;12.292;2024-02-21T12:02:46;1.00;;;0.90;;
1799;SDS011;919;48.274;12.292;2024-02-21T12:05:13;1.80;;;1.10;;
1799;SDS011;919;48.274;12.292;2024-02-21T12:07:41;2.93;;;1.20;;
1799;SDS011;919;48.274;12.292;2024-02-21T12:10:09;3.30;;;1.30;;
1799;SDS011;919;48.274;12.292;2024-02-21T12:12:36;1.83;;;1.20;;
1799;SDS011;919;48.274;12.292;2024-02-21T12:15:04;1.20;;;1.10;;
1799;SDS011;919;48.274;12.292;2024-02-21T12:17:32;1.00;;;1.00;;
1799;SDS011;919;48.274;12.292;2024-02-21T12:20:00;3.43;;;1.17;;
1799;SDS011;919;48.274;12.292;2024-02-21T12:22:29;1.37;;;0.90;;
1799;SDS011;919;48.274;12.292;2024-02-21T12:24:58;1.23;;;1.10;;
1799;SDS011;919;48.274;12.292;2024-02-21T12:27:25;1.03;;;1.00;;
1799;SDS011;919;48.274;12.292;2024-02-21T12:29:52;1.33;;;0.90;;
1799;SDS011;919;48.274;12.292;2024-02-21T12:32:19;1.90;;;1.70;;
1799;SDS011;919;48.274;12.292;2024-02-21T12:34:45;1.07;;;0.90;;
1799;SDS011;919;48.274;12.292;2024-02-21T12:37:12;1.40;;;0.93;;
1799;SDS011;919;48.274;12.292;2024-02-21T12:39:40;1.17;;;1.10;;
1799;SDS011;919;48.274;12.292;2024-02-21T12:42:08;0.80;;;0.80;;
1799;SDS011;919;48.274;12.292;2024-02-21T12:44:36;2.50;;;1.50;;
1799;SDS011;919;48.274;12.292;2024-02-21T12:47:03;1.13;;;1.03;;
1799;SDS011;919;48.274;12.292;2024-02-21T12:49:30;0.90;;;0.90;;
1799;SDS011;919;48.274;12.292;2024-02-21T12:51:57;1.37;;;1.10;;
1799;SDS011;919;48.274;12.292;2024-02-21T12:54:24;2.37;;;1.00;;
1799;SDS011;919;48.274;12.292;2024-02-21T12:56:51;1.03;;;0.93;;
1799;SDS011;919;48.274;12.292;2024-02-21T12:59:19;2.40;;;0.90;;
1799;SDS011;919;48.274;12.292;2024-02-21T13:01:46;2.13;;;1.47;;
1799;SDS011;919;48.274;12.292;2024-02-21T13:04:12;1.00;;;1.00;;
1799;SDS011;919;48.274;12.292;2024-02-21T13:06:39;1.13;;;0.87;;
1799;SDS011;919;48.274;12.292;2024-02-21T13:09:06;1.17;;;0.77;;
1799;SDS011;919;48.274;12.292;2024-02-21T13:11:36;1.20;;;0.80;;
1799;SDS011;919;48.274;12.292;2024-02-21T13:14:03;0.87;;;0.87;;
1799;SDS011;919;48.274;12.292;2024-02-21T13:16:31;0.80;;;0.80;;
1799;SDS011;919;48.274;12.292;2024-02-21T13:18:59;0.90;;;0.90;;
1799;SDS011;919;48.274;12.292;2024-02-21T13:21:26;2.57;;;1.07;;
1799;SDS011;919;48.274;12.292;2024-02-21T13:23:52;0.90;;;0.90;;
1799;SDS011;919;48.274;12.292;2024-02-21T13:26:19;0.70;;;0.70;;
1799;SDS011;919;48.274;12.292;2024-02-21T13:28:46;1.07;;;0.97;;
1799;SDS011;919;48.274;12.292;2024-02-21T13:31:13;0.93;;;0.87;;
1799;SDS011;919;48.274;12.292;2024-02-21T13:33:42;2.87;;;1.00;;
1799;SDS011;919;48.274;12.292;2024-02-21T13:36:10;0.90;;;0.80;;
1799;SDS011;919;48.274;12.292;2024-02-21T13:38:37;1.40;;;0.83;;
1799;SDS011;919;48.274;12.292;2024-02-21T13:41:04;1.43;;;0.73;;
1799;SDS011;919;48.274;12.292;2024-02-21T13:43:31;1.43;;;1.10;;
1799;SDS011;919;48.274;12.292;2024-02-21T13:45:58;2.33;;;1.03;;
1799;SDS011;919;48.274;12.292;2024-02-21T13:48:26;0.70;;;0.70;;
1799;SDS011;919;48.274;12.292;2024-02-21T13:50:55;1.00;;;0.90;;
1799;SDS011;919;48.274;12.292;2024-02-21T13:53:22;1.00;;;1.00;;
1799;SDS011;919;48.274;12.292;2024-02-21T13:55:49;1.80;;;0.70;;
1799;SDS011;919;48.274;12.292;2024-02-21T13:58:16;0.90;;;0.70;;
1799;SDS011;919;48.274;12.292;2024-02-21T14:00:43;0.80;;;0.63;;
1799;SDS011;919;48.274;12.292;2024-02-21T14:03:10;0.80;;;0.70;;
1799;SDS011;919;48.274;12.292;2024-02-21T14:05:37;0.60;;;0.60;;
1799;SDS011;919;48.274;12.292;2024-02-21T14:08:06;0.60;;;0.60;;
1799;SDS011;919;48.274;12.292;2024-02-21T14:10:32;0.90;;;0.50;;
1799;SDS011;919;48.274;12.292;2024-02-21T14:12:59;2.37;;;0.80;;
1799;SDS011;919;48.274;12.292;2024-02-21T14:15:26;0.60;;;0.53;;
1799;SDS011;919;48.274;12.292;2024-02-21T14:17:53;0.97;;;0.70;;
1799;SDS011;919;48.274;12.292;2024-02-21T14:20:20;0.70;;;0.70;;
1799;SDS011;919;48.274;12.292;2024-02-21T14:22:47;0.70;;;0.70;;
1799;SDS011;919;48.274;12.292;2024-02-21T14:25:15;1.27;;;0.80;;
1799;SDS011;919;48.274;12.292;2024-02-21T14:27:41;0.70;;;0.70;;
1799;SDS011;919;48.274;12.292;2024-02-21T14:30:09;0.60;;;0.60;;
1799;SDS011;919;48.274;12.292;2024-02-21T14:32:36;0.57;;;0.57;;
1799;SDS011;919;48.274;12.292;2024-02-21T14:35:03;0.83;;;0.67;;
1799;SDS011;919;48.274;12.292;2024-02-21T14:37:31;0.63;;;0.63;;
1799;SDS011;919;48.274;12.292;2024-02-21T14:39:57;0.60;;;0.50;;
1799;SDS011;919;48.274;12.292;2024-02-21T14:42:26;0.90;;;0.70;;
1799;SDS011;919;48.274;12.292;2024-02-21T14:44:53;0.60;;;0.60;;
1799;SDS011;919;48.274;12.292;2024-02-21T14:47:28;0.53;;;0.50;;
1799;SDS011;919;48.274;12.292;2024-02-21T14:49:56;0.67;;;0.60;;
1799;SDS011;919;48.274;12.292;2024-02-21T14:52:23;4.97;;;0.50;;
1799;SDS011;919;48.274;12.292;2024-02-21T14:54:52;0.50;;;0.40;;
1799;SDS011;919;48.274;12.292;2024-02-21T14:57:19;0.60;;;0.53;;
1799;SDS011;919;48.274;12.292;2024-02-21T14:59:47;0.50;;;0.50;;
1799;SDS011;919;48.274;12.292;2024-02-21T15:02:15;0.80;;;0.60;;
1799;SDS011;919;48.274;12.292;2024-02-21T15:04:41;1.23;;;0.80;;
1799;SDS011;919;48.274;12.292;2024-02-21T15:07:08;0.60;;;0.60;;
1799;SDS011;919;48.274;12.292;2024-02-21T15:09:35;0.50;;;0.40;;
1799;SDS011;919;48.274;12.292;2024-02-21T15:12:02;0.90;;;0.90;;
1799;SDS011;919;48.274;12.292;2024-02-21T15:14:28;0.90;;;0.73;;
1799;SDS011;919;48.274;12.292;2024-02-21T15:16:56;1.53;;;0.70;;
1799;SDS011;919;48.274;12.292;2024-02-21T15:19:23;1.57;;;0.97;;
1799;SDS011;919;48.274;12.292;2024-02-21T15:21:50;1.03;;;1.03;;